Terminal Aerodrome Forecast
Issued by NWS Goodland, KS

Home | Current Version | Previous Version | Text Only | Print | Product List | Glossary On
Versions: 1 2 3 4 5 6 7 8 9 10 11 12 13 14 15
000
FTUS43 KGLD 251720
TAFGLD
TAF
KGLD 251720Z 2518/2618 33015G25KT P6SM SCT120
     FM252100 36020G30KT P6SM VCSH SCT050 SCT120
     FM260000 02011KT P6SM BKN035=

USA.gov is the U.S. government's official web portal to all federal, state and local government web resources and services.